sensor_id;sensor_type;location;lat;lon;timestamp;P1;durP1;ratioP1;P2;durP2;ratioP2
24873;SDS011;12945;42.648;23.370;2023-12-28T00:02:18;25.45;;;12.65;;
24873;SDS011;12945;42.648;23.370;2023-12-28T00:04:44;25.83;;;13.20;;
24873;SDS011;12945;42.648;23.370;2023-12-28T00:07:09;25.73;;;12.50;;
24873;SDS011;12945;42.648;23.370;2023-12-28T00:09:34;22.83;;;11.45;;
24873;SDS011;12945;42.648;23.370;2023-12-28T00:12:00;21.20;;;11.95;;
24873;SDS011;12945;42.648;23.370;2023-12-28T00:14:25;24.63;;;11.43;;
24873;SDS011;12945;42.648;23.370;2023-12-28T00:16:50;20.67;;;11.35;;
24873;SDS011;12945;42.648;23.370;2023-12-28T00:19:16;22.25;;;11.73;;
24873;SDS011;12945;42.648;23.370;2023-12-28T00:21:41;25.83;;;11.50;;
24873;SDS011;12945;42.648;23.370;2023-12-28T00:24:06;22.27;;;11.40;;
24873;SDS011;12945;42.648;23.370;2023-12-28T00:26:32;23.17;;;11.55;;
24873;SDS011;12945;42.648;23.370;2023-12-28T00:28:57;17.92;;;10.30;;
24873;SDS011;12945;42.648;23.370;2023-12-28T00:31:22;19.73;;;10.10;;
24873;SDS011;12945;42.648;23.370;2023-12-28T00:33:48;17.90;;;8.98;;
24873;SDS011;12945;42.648;23.370;2023-12-28T00:36:15;20.35;;;9.32;;
24873;SDS011;12945;42.648;23.370;2023-12-28T00:38:40;16.08;;;8.50;;
24873;SDS011;12945;42.648;23.370;2023-12-28T00:41:05;13.10;;;7.75;;
24873;SDS011;12945;42.648;23.370;2023-12-28T00:43:30;12.70;;;7.30;;
24873;SDS011;12945;42.648;23.370;2023-12-28T00:45:56;15.18;;;7.95;;
24873;SDS011;12945;42.648;23.370;2023-12-28T00:48:21;14.25;;;8.00;;
24873;SDS011;12945;42.648;23.370;2023-12-28T00:50:46;15.63;;;8.05;;
24873;SDS011;12945;42.648;23.370;2023-12-28T00:53:11;13.93;;;7.47;;
24873;SDS011;12945;42.648;23.370;2023-12-28T00:55:37;11.48;;;6.85;;
24873;SDS011;12945;42.648;23.370;2023-12-28T00:58:02;14.18;;;7.55;;
24873;SDS011;12945;42.648;23.370;2023-12-28T01:00:27;15.05;;;7.80;;
24873;SDS011;12945;42.648;23.370;2023-12-28T01:02:53;13.27;;;7.57;;
24873;SDS011;12945;42.648;23.370;2023-12-28T01:05:19;14.35;;;7.53;;
24873;SDS011;12945;42.648;23.370;2023-12-28T01:07:46;14.23;;;7.15;;
24873;SDS011;12945;42.648;23.370;2023-12-28T01:10:11;13.43;;;7.32;;
24873;SDS011;12945;42.648;23.370;2023-12-28T01:12:36;17.75;;;7.75;;
24873;SDS011;12945;42.648;23.370;2023-12-28T01:15:01;17.25;;;8.30;;
24873;SDS011;12945;42.648;23.370;2023-12-28T01:17:27;14.88;;;7.93;;
24873;SDS011;12945;42.648;23.370;2023-12-28T01:19:52;15.85;;;7.95;;
24873;SDS011;12945;42.648;23.370;2023-12-28T01:22:17;13.35;;;7.20;;
24873;SDS011;12945;42.648;23.370;2023-12-28T01:24:45;16.42;;;7.60;;
24873;SDS011;12945;42.648;23.370;2023-12-28T01:27:11;11.93;;;6.90;;
24873;SDS011;12945;42.648;23.370;2023-12-28T01:29:36;13.73;;;7.07;;
24873;SDS011;12945;42.648;23.370;2023-12-28T01:32:02;14.98;;;7.20;;
24873;SDS011;12945;42.648;23.370;2023-12-28T01:34:28;11.05;;;6.40;;
24873;SDS011;12945;42.648;23.370;2023-12-28T01:36:53;12.93;;;6.85;;
24873;SDS011;12945;42.648;23.370;2023-12-28T01:39:18;14.38;;;7.80;;
24873;SDS011;12945;42.648;23.370;2023-12-28T01:41:44;15.85;;;7.90;;
24873;SDS011;12945;42.648;23.370;2023-12-28T01:44:09;12.88;;;7.22;;
24873;SDS011;12945;42.648;23.370;2023-12-28T01:46:34;15.60;;;7.50;;
24873;SDS011;12945;42.648;23.370;2023-12-28T01:48:59;15.95;;;7.15;;
24873;SDS011;12945;42.648;23.370;2023-12-28T01:51:26;14.52;;;7.38;;
24873;SDS011;12945;42.648;23.370;2023-12-28T01:53:51;13.82;;;7.05;;
24873;SDS011;12945;42.648;23.370;2023-12-28T01:56:17;18.55;;;7.82;;
24873;SDS011;12945;42.648;23.370;2023-12-28T01:58:43;14.82;;;7.60;;
24873;SDS011;12945;42.648;23.370;2023-12-28T02:01:09;14.57;;;7.93;;
24873;SDS011;12945;42.648;23.370;2023-12-28T02:03:35;15.60;;;7.43;;
24873;SDS011;12945;42.648;23.370;2023-12-28T02:06:00;14.57;;;7.35;;
24873;SDS011;12945;42.648;23.370;2023-12-28T02:08:26;13.13;;;8.02;;
24873;SDS011;12945;42.648;23.370;2023-12-28T02:10:51;17.80;;;7.75;;
24873;SDS011;12945;42.648;23.370;2023-12-28T02:13:16;15.05;;;7.90;;
24873;SDS011;12945;42.648;23.370;2023-12-28T02:15:42;12.30;;;6.68;;
24873;SDS011;12945;42.648;23.370;2023-12-28T02:18:11;12.45;;;7.03;;
24873;SDS011;12945;42.648;23.370;2023-12-28T02:20:36;13.88;;;7.65;;
24873;SDS011;12945;42.648;23.370;2023-12-28T02:23:03;12.95;;;7.25;;
24873;SDS011;12945;42.648;23.370;2023-12-28T02:25:29;18.48;;;7.35;;
24873;SDS011;12945;42.648;23.370;2023-12-28T02:27:54;15.55;;;8.68;;
24873;SDS011;12945;42.648;23.370;2023-12-28T02:30:20;16.45;;;8.20;;
24873;SDS011;12945;42.648;23.370;2023-12-28T02:35:17;12.93;;;6.55;;
24873;SDS011;12945;42.648;23.370;2023-12-28T02:37:43;15.68;;;7.68;;
24873;SDS011;12945;42.648;23.370;2023-12-28T02:40:09;15.20;;;6.70;;
24873;SDS011;12945;42.648;23.370;2023-12-28T02:42:34;13.75;;;6.90;;
24873;SDS011;12945;42.648;23.370;2023-12-28T02:45:00;14.68;;;7.30;;
24873;SDS011;12945;42.648;23.370;2023-12-28T02:47:25;14.55;;;7.80;;
24873;SDS011;12945;42.648;23.370;2023-12-28T02:49:50;15.32;;;7.40;;
24873;SDS011;12945;42.648;23.370;2023-12-28T02:52:15;10.38;;;6.72;;
24873;SDS011;12945;42.648;23.370;2023-12-28T02:54:41;13.73;;;7.30;;
24873;SDS011;12945;42.648;23.370;2023-12-28T02:57:06;13.18;;;7.55;;
24873;SDS011;12945;42.648;23.370;2023-12-28T02:59:31;12.65;;;7.30;;
24873;SDS011;12945;42.648;23.370;2023-12-28T03:01:56;14.20;;;7.65;;
24873;SDS011;12945;42.648;23.370;2023-12-28T03:04:22;15.48;;;8.15;;
24873;SDS011;12945;42.648;23.370;2023-12-28T03:06:47;13.80;;;7.72;;
24873;SDS011;12945;42.648;23.370;2023-12-28T03:09:12;18.83;;;8.13;;
24873;SDS011;12945;42.648;23.370;2023-12-28T03:11:38;16.77;;;9.00;;
24873;SDS011;12945;42.648;23.370;2023-12-28T03:14:03;15.18;;;8.30;;
24873;SDS011;12945;42.648;23.370;2023-12-28T03:16:28;15.93;;;7.47;;
24873;SDS011;12945;42.648;23.370;2023-12-28T03:18:53;13.30;;;7.63;;
24873;SDS011;12945;42.648;23.370;2023-12-28T03:21:18;15.45;;;7.65;;
24873;SDS011;12945;42.648;23.370;2023-12-28T03:23:44;19.38;;;8.02;;
24873;SDS011;12945;42.648;23.370;2023-12-28T03:26:09;15.35;;;7.60;;
24873;SDS011;12945;42.648;23.370;2023-12-28T03:28:34;19.58;;;8.15;;
24873;SDS011;12945;42.648;23.370;2023-12-28T03:31:01;15.05;;;7.57;;
24873;SDS011;12945;42.648;23.370;2023-12-28T03:33:26;13.82;;;6.85;;
24873;SDS011;12945;42.648;23.370;2023-12-28T03:35:52;15.05;;;7.35;;
24873;SDS011;12945;42.648;23.370;2023-12-28T03:38:17;17.08;;;7.45;;
24873;SDS011;12945;42.648;23.370;2023-12-28T03:40:42;13.25;;;7.57;;
24873;SDS011;12945;42.648;23.370;2023-12-28T03:43:08;14.25;;;7.68;;
24873;SDS011;12945;42.648;23.370;2023-12-28T03:45:33;15.60;;;7.47;;
24873;SDS011;12945;42.648;23.370;2023-12-28T03:47:59;18.08;;;7.88;;
24873;SDS011;12945;42.648;23.370;2023-12-28T03:50:24;14.45;;;7.68;;
24873;SDS011;12945;42.648;23.370;2023-12-28T03:52:49;13.00;;;7.60;;
24873;SDS011;12945;42.648;23.370;2023-12-28T03:55:15;14.35;;;7.72;;
24873;SDS011;12945;42.648;23.370;2023-12-28T03:57:40;13.70;;;6.90;;
24873;SDS011;12945;42.648;23.370;2023-12-28T04:00:07;15.65;;;7.85;;
24873;SDS011;12945;42.648;23.370;2023-12-28T04:02:32;13.55;;;7.15;;
24873;SDS011;12945;42.648;23.370;2023-12-28T04:04:58;15.85;;;7.63;;
24873;SDS011;12945;42.648;23.370;2023-12-28T04:07:24;12.70;;;7.15;;
24873;SDS011;12945;42.648;23.370;2023-12-28T04:09:49;14.13;;;8.07;;
24873;SDS011;12945;42.648;23.370;2023-12-28T04:12:14;14.02;;;8.00;;
24873;SDS011;12945;42.648;23.370;2023-12-28T04:14:39;16.00;;;7.90;;
24873;SDS011;12945;42.648;23.370;2023-12-28T04:17:04;15.13;;;7.90;;
24873;SDS011;12945;42.648;23.370;2023-12-28T04:19:30;17.98;;;9.38;;
24873;SDS011;12945;42.648;23.370;2023-12-28T04:21:55;18.23;;;9.45;;
24873;SDS011;12945;42.648;23.370;2023-12-28T04:24:21;17.55;;;9.18;;
24873;SDS011;12945;42.648;23.370;2023-12-28T04:26:46;16.20;;;8.70;;
24873;SDS011;12945;42.648;23.370;2023-12-28T04:29:11;18.05;;;8.90;;
24873;SDS011;12945;42.648;23.370;2023-12-28T04:31:40;16.00;;;9.13;;
24873;SDS011;12945;42.648;23.370;2023-12-28T04:34:06;19.58;;;8.75;;
24873;SDS011;12945;42.648;23.370;2023-12-28T04:36:32;15.82;;;8.63;;
24873;SDS011;12945;42.648;23.370;2023-12-28T04:38:57;20.17;;;9.65;;
24873;SDS011;12945;42.648;23.370;2023-12-28T04:41:22;15.80;;;8.70;;
24873;SDS011;12945;42.648;23.370;2023-12-28T04:43:48;26.00;;;13.88;;
24873;SDS011;12945;42.648;23.370;2023-12-28T04:46:13;29.17;;;14.35;;
24873;SDS011;12945;42.648;23.370;2023-12-28T04:48:38;28.30;;;13.50;;
24873;SDS011;12945;42.648;23.370;2023-12-28T04:51:03;32.60;;;14.25;;
24873;SDS011;12945;42.648;23.370;2023-12-28T04:53:29;26.25;;;13.25;;
24873;SDS011;12945;42.648;23.370;2023-12-28T04:55:55;31.13;;;14.38;;
24873;SDS011;12945;42.648;23.370;2023-12-28T04:58:20;27.23;;;13.70;;
24873;SDS011;12945;42.648;23.370;2023-12-28T05:00:45;27.38;;;13.73;;
24873;SDS011;12945;42.648;23.370;2023-12-28T05:03:11;24.67;;;13.90;;
24873;SDS011;12945;42.648;23.370;2023-12-28T05:05:36;27.50;;;13.90;;
24873;SDS011;12945;42.648;23.370;2023-12-28T05:08:01;23.52;;;12.82;;
24873;SDS011;12945;42.648;23.370;2023-12-28T05:10:26;25.70;;;13.73;;
24873;SDS011;12945;42.648;23.370;2023-12-28T05:12:52;24.08;;;13.70;;
24873;SDS011;12945;42.648;23.370;2023-12-28T05:15:17;26.20;;;13.55;;
24873;SDS011;12945;42.648;23.370;2023-12-28T05:17:44;28.13;;;13.50;;
24873;SDS011;12945;42.648;23.370;2023-12-28T05:20:10;26.27;;;13.95;;
24873;SDS011;12945;42.648;23.370;2023-12-28T05:22:35;27.90;;;13.50;;
24873;SDS011;12945;42.648;23.370;2023-12-28T05:25:00;24.02;;;12.38;;
24873;SDS011;12945;42.648;23.370;2023-12-28T05:27:25;30.13;;;12.80;;
24873;SDS011;12945;42.648;23.370;2023-12-28T05:29:51;22.77;;;12.15;;
24873;SDS011;12945;42.648;23.370;2023-12-28T05:32:16;25.95;;;13.05;;
24873;SDS011;12945;42.648;23.370;2023-12-28T05:34:41;31.55;;;13.60;;
24873;SDS011;12945;42.648;23.370;2023-12-28T05:37:06;20.98;;;10.65;;
24873;SDS011;12945;42.648;23.370;2023-12-28T05:39:32;26.48;;;12.27;;
24873;SDS011;12945;42.648;23.370;2023-12-28T05:41:57;18.63;;;10.65;;
24873;SDS011;12945;42.648;23.370;2023-12-28T05:44:22;15.95;;;7.90;;
24873;SDS011;12945;42.648;23.370;2023-12-28T05:46:47;14.88;;;7.88;;
24873;SDS011;12945;42.648;23.370;2023-12-28T05:49:13;15.57;;;7.78;;
24873;SDS011;12945;42.648;23.370;2023-12-28T05:51:41;16.73;;;8.20;;
24873;SDS011;12945;42.648;23.370;2023-12-28T05:54:06;24.70;;;10.70;;
24873;SDS011;12945;42.648;23.370;2023-12-28T05:56:32;16.98;;;9.02;;
24873;SDS011;12945;42.648;23.370;2023-12-28T05:58:57;14.02;;;8.40;;
24873;SDS011;12945;42.648;23.370;2023-12-28T06:01:22;22.95;;;11.88;;
24873;SDS011;12945;42.648;23.370;2023-12-28T06:03:47;24.98;;;11.63;;
24873;SDS011;12945;42.648;23.370;2023-12-28T06:06:15;19.65;;;11.68;;
24873;SDS011;12945;42.648;23.370;2023-12-28T06:08:40;21.05;;;10.88;;
24873;SDS011;12945;42.648;23.370;2023-12-28T06:11:05;20.17;;;10.63;;
24873;SDS011;12945;42.648;23.370;2023-12-28T06:13:30;21.70;;;9.23;;
24873;SDS011;12945;42.648;23.370;2023-12-28T06:15:56;20.35;;;10.25;;
24873;SDS011;12945;42.648;23.370;2023-12-28T06:18:21;18.40;;;10.05;;
24873;SDS011;12945;42.648;23.370;2023-12-28T06:20:47;27.35;;;11.38;;
24873;SDS011;12945;42.648;23.370;2023-12-28T06:23:12;18.27;;;9.90;;
24873;SDS011;12945;42.648;23.370;2023-12-28T06:25:37;16.60;;;8.77;;
24873;SDS011;12945;42.648;23.370;2023-12-28T06:28:02;20.38;;;8.98;;
24873;SDS011;12945;42.648;23.370;2023-12-28T06:30:28;16.35;;;8.85;;
24873;SDS011;12945;42.648;23.370;2023-12-28T06:32:53;16.13;;;7.63;;
24873;SDS011;12945;42.648;23.370;2023-12-28T06:35:18;15.23;;;7.82;;
24873;SDS011;12945;42.648;23.370;2023-12-28T06:37:43;19.88;;;8.77;;
24873;SDS011;12945;42.648;23.370;2023-12-28T06:40:09;15.55;;;7.35;;
24873;SDS011;12945;42.648;23.370;2023-12-28T06:42:34;15.45;;;8.05;;
24873;SDS011;12945;42.648;23.370;2023-12-28T06:45:00;16.25;;;8.65;;
24873;SDS011;12945;42.648;23.370;2023-12-28T06:47:25;13.00;;;7.43;;
24873;SDS011;12945;42.648;23.370;2023-12-28T06:49:50;13.50;;;7.70;;
24873;SDS011;12945;42.648;23.370;2023-12-28T06:52:15;15.48;;;7.65;;
24873;SDS011;12945;42.648;23.370;2023-12-28T06:54:41;14.73;;;7.05;;
24873;SDS011;12945;42.648;23.370;2023-12-28T06:57:06;12.68;;;7.40;;
24873;SDS011;12945;42.648;23.370;2023-12-28T06:59:31;15.68;;;8.15;;
24873;SDS011;12945;42.648;23.370;2023-12-28T07:01:57;12.38;;;7.20;;
24873;SDS011;12945;42.648;23.370;2023-12-28T07:04:22;15.75;;;7.35;;
24873;SDS011;12945;42.648;23.370;2023-12-28T07:06:50;13.52;;;7.70;;
24873;SDS011;12945;42.648;23.370;2023-12-28T07:09:15;15.45;;;9.10;;
24873;SDS011;12945;42.648;23.370;2023-12-28T07:11:41;15.90;;;8.73;;
24873;SDS011;12945;42.648;23.370;2023-12-28T07:14:06;17.65;;;9.10;;
24873;SDS011;12945;42.648;23.370;2023-12-28T07:16:31;16.52;;;9.75;;
24873;SDS011;12945;42.648;23.370;2023-12-28T07:18:56;16.98;;;9.98;;
24873;SDS011;12945;42.648;23.370;2023-12-28T07:21:22;15.55;;;9.15;;
24873;SDS011;12945;42.648;23.370;2023-12-28T07:23:47;20.13;;;10.23;;
24873;SDS011;12945;42.648;23.370;2023-12-28T07:26:14;17.35;;;9.35;;
24873;SDS011;12945;42.648;23.370;2023-12-28T07:28:39;21.65;;;10.52;;
24873;SDS011;12945;42.648;23.370;2023-12-28T07:31:07;16.10;;;9.93;;
24873;SDS011;12945;42.648;23.370;2023-12-28T07:33:33;17.52;;;9.73;;
24873;SDS011;12945;42.648;23.370;2023-12-28T07:35:58;18.70;;;9.32;;
24873;SDS011;12945;42.648;23.370;2023-12-28T07:38:27;17.95;;;9.68;;
24873;SDS011;12945;42.648;23.370;2023-12-28T07:40:52;16.05;;;9.50;;
24873;SDS011;12945;42.648;23.370;2023-12-28T07:43:18;21.27;;;10.25;;
24873;SDS011;12945;42.648;23.370;2023-12-28T07:45:43;17.30;;;9.43;;
24873;SDS011;12945;42.648;23.370;2023-12-28T07:48:08;14.70;;;8.65;;
24873;SDS011;12945;42.648;23.370;2023-12-28T07:50:33;11.20;;;6.65;;
24873;SDS011;12945;42.648;23.370;2023-12-28T07:52:59;13.93;;;7.72;;
24873;SDS011;12945;42.648;23.370;2023-12-28T07:55:24;19.90;;;8.98;;
24873;SDS011;12945;42.648;23.370;2023-12-28T07:57:51;18.45;;;9.27;;
24873;SDS011;12945;42.648;23.370;2023-12-28T08:00:16;18.25;;;10.32;;
24873;SDS011;12945;42.648;23.370;2023-12-28T08:02:41;16.85;;;8.27;;
24873;SDS011;12945;42.648;23.370;2023-12-28T08:05:07;23.95;;;10.07;;
24873;SDS011;12945;42.648;23.370;2023-12-28T08:07:32;20.55;;;9.82;;
24873;SDS011;12945;42.648;23.370;2023-12-28T08:09:57;22.85;;;10.15;;
24873;SDS011;12945;42.648;23.370;2023-12-28T08:12:22;23.40;;;11.45;;
24873;SDS011;12945;42.648;23.370;2023-12-28T08:14:49;20.85;;;12.18;;
24873;SDS011;12945;42.648;23.370;2023-12-28T08:17:14;22.02;;;11.93;;
24873;SDS011;12945;42.648;23.370;2023-12-28T08:19:39;22.38;;;12.55;;
24873;SDS011;12945;42.648;23.370;2023-12-28T08:22:05;23.55;;;12.43;;
24873;SDS011;12945;42.648;23.370;2023-12-28T08:24:30;22.90;;;13.02;;
24873;SDS011;12945;42.648;23.370;2023-12-28T08:26:55;25.23;;;14.05;;
24873;SDS011;12945;42.648;23.370;2023-12-28T08:29:24;26.23;;;15.27;;
24873;SDS011;12945;42.648;23.370;2023-12-28T08:31:49;26.60;;;16.27;;
24873;SDS011;12945;42.648;23.370;2023-12-28T08:34:15;34.92;;;17.55;;
24873;SDS011;12945;42.648;23.370;2023-12-28T08:36:40;29.77;;;18.35;;
24873;SDS011;12945;42.648;23.370;2023-12-28T08:39:06;35.03;;;19.13;;
24873;SDS011;12945;42.648;23.370;2023-12-28T08:41:32;31.02;;;19.10;;
24873;SDS011;12945;42.648;23.370;2023-12-28T08:43:57;30.92;;;19.27;;
24873;SDS011;12945;42.648;23.370;2023-12-28T08:46:22;36.78;;;21.08;;
24873;SDS011;12945;42.648;23.370;2023-12-28T08:48:49;32.42;;;20.17;;
24873;SDS011;12945;42.648;23.370;2023-12-28T08:51:15;33.90;;;20.23;;
24873;SDS011;12945;42.648;23.370;2023-12-28T08:53:40;35.83;;;21.55;;
24873;SDS011;12945;42.648;23.370;2023-12-28T08:56:13;38.45;;;21.85;;
24873;SDS011;12945;42.648;23.370;2023-12-28T08:58:38;36.92;;;21.90;;
24873;SDS011;12945;42.648;23.370;2023-12-28T09:01:04;32.60;;;20.52;;
24873;SDS011;12945;42.648;23.370;2023-12-28T09:03:29;35.40;;;21.15;;
24873;SDS011;12945;42.648;23.370;2023-12-28T09:05:54;36.97;;;19.80;;
24873;SDS011;12945;42.648;23.370;2023-12-28T09:08:19;36.10;;;21.83;;
24873;SDS011;12945;42.648;23.370;2023-12-28T09:10:45;29.02;;;19.55;;
24873;SDS011;12945;42.648;23.370;2023-12-28T09:13:14;45.05;;;21.83;;
24873;SDS011;12945;42.648;23.370;2023-12-28T09:15:39;39.80;;;20.67;;
24873;SDS011;12945;42.648;23.370;2023-12-28T09:18:05;42.88;;;23.30;;
24873;SDS011;12945;42.648;23.370;2023-12-28T09:20:30;41.72;;;23.30;;
24873;SDS011;12945;42.648;23.370;2023-12-28T09:22:57;39.50;;;23.58;;
24873;SDS011;12945;42.648;23.370;2023-12-28T09:25:22;43.75;;;24.75;;
24873;SDS011;12945;42.648;23.370;2023-12-28T09:27:47;42.05;;;26.58;;
24873;SDS011;12945;42.648;23.370;2023-12-28T09:30:13;47.40;;;25.77;;
24873;SDS011;12945;42.648;23.370;2023-12-28T09:32:38;49.60;;;26.20;;
24873;SDS011;12945;42.648;23.370;2023-12-28T09:35:03;50.05;;;26.60;;
24873;SDS011;12945;42.648;23.370;2023-12-28T09:37:29;50.83;;;27.42;;
24873;SDS011;12945;42.648;23.370;2023-12-28T09:39:54;48.25;;;26.90;;
24873;SDS011;12945;42.648;23.370;2023-12-28T09:42:26;52.35;;;26.88;;
24873;SDS011;12945;42.648;23.370;2023-12-28T09:44:53;46.05;;;25.90;;
24873;SDS011;12945;42.648;23.370;2023-12-28T09:47:19;54.50;;;25.02;;
24873;SDS011;12945;42.648;23.370;2023-12-28T09:49:45;42.58;;;24.88;;
24873;SDS011;12945;42.648;23.370;2023-12-28T09:52:10;48.53;;;25.70;;
24873;SDS011;12945;42.648;23.370;2023-12-28T09:54:35;48.65;;;24.35;;
24873;SDS011;12945;42.648;23.370;2023-12-28T09:57:01;46.92;;;23.67;;
24873;SDS011;12945;42.648;23.370;2023-12-28T09:59:27;45.20;;;24.45;;
24873;SDS011;12945;42.648;23.370;2023-12-28T10:01:53;42.55;;;22.45;;
24873;SDS011;12945;42.648;23.370;2023-12-28T10:04:20;50.33;;;22.83;;
24873;SDS011;12945;42.648;23.370;2023-12-28T10:06:45;40.58;;;23.80;;
24873;SDS011;12945;42.648;23.370;2023-12-28T10:09:10;40.13;;;22.42;;
24873;SDS011;12945;42.648;23.370;2023-12-28T10:11:36;43.88;;;23.70;;
24873;SDS011;12945;42.648;23.370;2023-12-28T10:14:03;38.72;;;22.15;;
24873;SDS011;12945;42.648;23.370;2023-12-28T10:16:29;38.55;;;21.33;;
24873;SDS011;12945;42.648;23.370;2023-12-28T10:18:55;35.15;;;22.58;;
24873;SDS011;12945;42.648;23.370;2023-12-28T10:21:20;36.75;;;22.23;;
24873;SDS011;12945;42.648;23.370;2023-12-28T10:23:46;38.50;;;24.98;;
24873;SDS011;12945;42.648;23.370;2023-12-28T10:26:11;36.38;;;23.58;;
24873;SDS011;12945;42.648;23.370;2023-12-28T10:28:37;42.45;;;22.80;;
24873;SDS011;12945;42.648;23.370;2023-12-28T10:31:04;45.10;;;24.75;;
24873;SDS011;12945;42.648;23.370;2023-12-28T10:33:36;40.88;;;24.17;;
24873;SDS011;12945;42.648;23.370;2023-12-28T10:36:03;44.25;;;25.52;;
24873;SDS011;12945;42.648;23.370;2023-12-28T10:38:30;44.30;;;25.35;;
24873;SDS011;12945;42.648;23.370;2023-12-28T10:40:59;40.47;;;24.17;;
24873;SDS011;12945;42.648;23.370;2023-12-28T10:43:24;41.47;;;23.85;;
24873;SDS011;12945;42.648;23.370;2023-12-28T10:45:50;39.95;;;24.05;;
24873;SDS011;12945;42.648;23.370;2023-12-28T10:48:17;44.28;;;24.65;;
24873;SDS011;12945;42.648;23.370;2023-12-28T10:50:48;43.45;;;24.92;;
24873;SDS011;12945;42.648;23.370;2023-12-28T10:58:26;33.67;;;21.42;;
24873;SDS011;12945;42.648;23.370;2023-12-28T11:03:23;34.03;;;20.57;;
24873;SDS011;12945;42.648;23.370;2023-12-28T11:05:49;31.95;;;20.70;;
24873;SDS011;12945;42.648;23.370;2023-12-28T11:08:14;37.05;;;21.90;;
24873;SDS011;12945;42.648;23.370;2023-12-28T11:10:40;45.33;;;21.88;;
24873;SDS011;12945;42.648;23.370;2023-12-28T11:13:05;28.60;;;19.88;;
24873;SDS011;12945;42.648;23.370;2023-12-28T11:15:30;33.72;;;21.35;;
24873;SDS011;12945;42.648;23.370;2023-12-28T11:17:56;43.05;;;24.55;;
24873;SDS011;12945;42.648;23.370;2023-12-28T11:20:22;39.35;;;24.67;;
24873;SDS011;12945;42.648;23.370;2023-12-28T11:22:47;44.10;;;25.48;;
24873;SDS011;12945;42.648;23.370;2023-12-28T11:25:18;48.40;;;25.42;;
24873;SDS011;12945;42.648;23.370;2023-12-28T11:27:47;43.85;;;24.40;;
24873;SDS011;12945;42.648;23.370;2023-12-28T11:30:12;42.38;;;25.67;;
24873;SDS011;12945;42.648;23.370;2023-12-28T11:32:38;45.00;;;24.13;;
24873;SDS011;12945;42.648;23.370;2023-12-28T11:35:06;42.40;;;25.15;;
24873;SDS011;12945;42.648;23.370;2023-12-28T11:37:34;39.33;;;25.52;;
24873;SDS011;12945;42.648;23.370;2023-12-28T11:40:09;51.05;;;25.05;;
24873;SDS011;12945;42.648;23.370;2023-12-28T11:42:35;40.45;;;25.60;;
24873;SDS011;12945;42.648;23.370;2023-12-28T11:45:00;38.90;;;24.65;;
24873;SDS011;12945;42.648;23.370;2023-12-28T11:47:26;38.40;;;23.92;;
24873;SDS011;12945;42.648;23.370;2023-12-28T11:49:54;43.22;;;24.17;;
24873;SDS011;12945;42.648;23.370;2023-12-28T11:52:29;35.53;;;24.83;;
24873;SDS011;12945;42.648;23.370;2023-12-28T11:54:55;44.65;;;23.60;;
24873;SDS011;12945;42.648;23.370;2023-12-28T11:57:20;39.88;;;24.55;;
24873;SDS011;12945;42.648;23.370;2023-12-28T11:59:47;39.58;;;23.55;;
24873;SDS011;12945;42.648;23.370;2023-12-28T12:02:13;46.10;;;22.67;;
24873;SDS011;12945;42.648;23.370;2023-12-28T12:04:39;33.25;;;21.95;;
24873;SDS011;12945;42.648;23.370;2023-12-28T12:07:04;37.53;;;21.60;;
24873;SDS011;12945;42.648;23.370;2023-12-28T12:09:30;38.63;;;20.00;;
24873;SDS011;12945;42.648;23.370;2023-12-28T12:11:59;38.20;;;19.87;;
24873;SDS011;12945;42.648;23.370;2023-12-28T12:14:25;32.13;;;20.50;;
24873;SDS011;12945;42.648;23.370;2023-12-28T12:16:50;29.25;;;18.30;;
24873;SDS011;12945;42.648;23.370;2023-12-28T12:19:17;28.75;;;18.52;;
24873;SDS011;12945;42.648;23.370;2023-12-28T12:21:43;32.50;;;18.65;;
24873;SDS011;12945;42.648;23.370;2023-12-28T12:24:09;24.25;;;17.30;;
24873;SDS011;12945;42.648;23.370;2023-12-28T12:26:34;29.52;;;17.17;;
24873;SDS011;12945;42.648;23.370;2023-12-28T12:29:01;26.42;;;15.43;;
24873;SDS011;12945;42.648;23.370;2023-12-28T12:31:26;27.90;;;17.30;;
24873;SDS011;12945;42.648;23.370;2023-12-28T12:33:52;28.70;;;17.98;;
24873;SDS011;12945;42.648;23.370;2023-12-28T12:36:17;32.60;;;20.23;;
24873;SDS011;12945;42.648;23.370;2023-12-28T12:38:42;32.47;;;20.45;;
24873;SDS011;12945;42.648;23.370;2023-12-28T12:41:09;35.85;;;21.40;;
24873;SDS011;12945;42.648;23.370;2023-12-28T12:43:35;33.08;;;19.67;;
24873;SDS011;12945;42.648;23.370;2023-12-28T12:46:00;28.27;;;18.55;;
24873;SDS011;12945;42.648;23.370;2023-12-28T12:48:26;28.85;;;18.42;;
24873;SDS011;12945;42.648;23.370;2023-12-28T12:50:51;37.28;;;18.45;;
24873;SDS011;12945;42.648;23.370;2023-12-28T12:53:16;29.53;;;19.17;;
24873;SDS011;12945;42.648;23.370;2023-12-28T12:55:41;33.05;;;18.92;;
24873;SDS011;12945;42.648;23.370;2023-12-28T12:58:08;35.17;;;19.23;;
24873;SDS011;12945;42.648;23.370;2023-12-28T13:00:33;36.30;;;20.58;;
24873;SDS011;12945;42.648;23.370;2023-12-28T13:02:59;34.47;;;17.13;;
24873;SDS011;12945;42.648;23.370;2023-12-28T13:05:24;33.10;;;16.45;;
24873;SDS011;12945;42.648;23.370;2023-12-28T13:07:50;35.20;;;16.77;;
24873;SDS011;12945;42.648;23.370;2023-12-28T13:10:16;35.55;;;16.58;;
24873;SDS011;12945;42.648;23.370;2023-12-28T13:12:41;30.50;;;17.50;;
24873;SDS011;12945;42.648;23.370;2023-12-28T13:15:06;29.10;;;17.65;;
24873;SDS011;12945;42.648;23.370;2023-12-28T13:17:34;30.00;;;17.40;;
24873;SDS011;12945;42.648;23.370;2023-12-28T13:19:59;25.15;;;16.00;;
24873;SDS011;12945;42.648;23.370;2023-12-28T13:22:24;30.05;;;17.02;;
24873;SDS011;12945;42.648;23.370;2023-12-28T13:24:51;40.55;;;19.17;;
24873;SDS011;12945;42.648;23.370;2023-12-28T13:27:16;28.83;;;16.23;;
24873;SDS011;12945;42.648;23.370;2023-12-28T13:29:42;24.60;;;15.75;;
24873;SDS011;12945;42.648;23.370;2023-12-28T13:32:08;35.35;;;16.50;;
24873;SDS011;12945;42.648;23.370;2023-12-28T13:34:33;32.30;;;18.30;;
24873;SDS011;12945;42.648;23.370;2023-12-28T13:36:59;23.48;;;15.82;;
24873;SDS011;12945;42.648;23.370;2023-12-28T13:39:26;32.38;;;16.83;;
24873;SDS011;12945;42.648;23.370;2023-12-28T13:41:53;38.05;;;16.42;;
24873;SDS011;12945;42.648;23.370;2023-12-28T13:44:19;27.00;;;16.83;;
24873;SDS011;12945;42.648;23.370;2023-12-28T13:46:44;26.35;;;16.52;;
24873;SDS011;12945;42.648;23.370;2023-12-28T13:49:10;31.00;;;17.67;;
24873;SDS011;12945;42.648;23.370;2023-12-28T13:51:35;33.50;;;17.58;;
24873;SDS011;12945;42.648;23.370;2023-12-28T13:54:00;32.50;;;17.27;;
24873;SDS011;12945;42.648;23.370;2023-12-28T13:56:25;36.37;;;17.33;;
24873;SDS011;12945;42.648;23.370;2023-12-28T13:58:50;34.22;;;18.33;;
24873;SDS011;12945;42.648;23.370;2023-12-28T14:01:16;34.97;;;18.02;;
24873;SDS011;12945;42.648;23.370;2023-12-28T14:03:41;34.05;;;18.35;;
24873;SDS011;12945;42.648;23.370;2023-12-28T14:06:06;33.40;;;19.60;;
24873;SDS011;12945;42.648;23.370;2023-12-28T14:08:31;37.90;;;19.98;;
24873;SDS011;12945;42.648;23.370;2023-12-28T14:10:57;36.15;;;19.60;;
24873;SDS011;12945;42.648;23.370;2023-12-28T14:13:22;38.08;;;21.27;;
24873;SDS011;12945;42.648;23.370;2023-12-28T14:15:48;37.53;;;21.33;;